createdAt,value
2022-11-24T00:01:31.909Z,75.78
2022-11-24T00:04:03.427Z,76.01
2022-11-24T00:06:35.341Z,75.78
2022-11-24T00:09:05.582Z,75.79
2022-11-24T00:11:36.672Z,75.74
2022-11-24T00:14:07.095Z,75.63
2022-11-24T00:16:38.334Z,75.71
2022-11-24T00:19:10.373Z,75.93
2022-11-24T00:21:39.864Z,75.69
2022-11-24T00:24:08.758Z,75.89
2022-11-24T00:26:38.274Z,75.89
2022-11-24T00:29:08.571Z,75.88
2022-11-24T00:31:41.874Z,75.77
2022-11-24T00:34:15.505Z,75.63
2022-11-24T00:36:44.700Z,75.74
2022-11-24T00:39:15.844Z,75.63
2022-11-24T00:41:44.861Z,75.57
2022-11-24T00:44:13.787Z,75.89
2022-11-24T00:46:42.809Z,75.78
2022-11-24T00:49:12.266Z,75.82
2022-11-24T00:51:41.227Z,75.70
2022-11-24T00:54:10.233Z,75.62
2022-11-24T00:56:39.080Z,75.51
2022-11-24T00:59:07.889Z,75.58
2022-11-24T01:01:37.877Z,75.65
2022-11-24T01:04:06.990Z,75.36
2022-11-24T01:06:36.937Z,75.47
2022-11-24T01:09:05.850Z,75.29
2022-11-24T01:11:55.310Z,75.00
2022-11-24T01:14:26.204Z,74.90
2022-11-24T01:16:55.812Z,74.98
2022-11-24T01:19:24.828Z,75.01
2022-11-24T01:21:54.213Z,74.94
2022-11-24T01:24:23.084Z,74.92
2022-11-24T01:26:51.896Z,74.75
2022-11-24T01:29:20.706Z,74.72
2022-11-24T01:31:49.552Z,74.87
2022-11-24T01:34:18.494Z,74.78
2022-11-24T01:36:47.382Z,74.43
2022-11-24T01:39:16.213Z,74.39
2022-11-24T01:41:45.036Z,74.50
2022-11-24T01:44:25.937Z,74.49
2022-11-24T01:47:21.006Z,74.13
2022-11-24T01:49:55.050Z,74.16
2022-11-24T01:52:33.607Z,74.20
2022-11-24T01:55:07.914Z,74.04
2022-11-24T01:57:44.875Z,73.83
2022-11-24T02:00:16.029Z,74.02
2022-11-24T02:02:46.446Z,73.61
2022-11-24T02:05:25.322Z,73.66
2022-11-24T02:07:56.553Z,73.37
2022-11-24T02:10:25.483Z,73.49
2022-11-24T02:12:57.107Z,73.17
2022-11-24T02:15:26.345Z,72.85
2022-11-24T02:17:55.245Z,72.90
2022-11-24T02:20:24.053Z,72.76
2022-11-24T02:22:55.769Z,72.72
2022-11-24T02:25:51.825Z,72.35
2022-11-24T02:28:23.097Z,71.94
2022-11-24T02:30:53.514Z,71.55
2022-11-24T02:33:23.499Z,71.45
2022-11-24T02:35:53.478Z,71.16
2022-11-24T02:38:42.640Z,70.91
2022-11-24T02:41:18.546Z,70.87
2022-11-24T02:43:57.170Z,70.85
2022-11-24T02:46:26.532Z,70.83
2022-11-24T02:48:55.519Z,70.83
2022-11-24T02:51:25.019Z,70.62
2022-11-24T02:53:54.018Z,70.40
2022-11-24T02:56:22.884Z,70.21
2022-11-24T02:58:51.872Z,70.04
2022-11-24T03:01:21.459Z,69.17
2022-11-24T03:03:50.552Z,68.82
2022-11-24T03:06:19.313Z,68.08
2022-11-24T03:08:48.240Z,68.10
2022-11-24T03:11:17.044Z,67.56
2022-11-24T03:13:45.899Z,67.44
2022-11-24T03:16:14.861Z,67.07
2022-11-24T03:18:43.632Z,66.87
2022-11-24T03:21:12.414Z,67.03
2022-11-24T03:23:41.200Z,67.18
2022-11-24T03:26:12.310Z,67.13
2022-11-24T03:28:41.515Z,66.90
2022-11-24T03:31:11.186Z,66.24
2022-11-24T03:33:40.271Z,65.82
2022-11-24T03:36:09.643Z,65.90
2022-11-24T03:38:38.583Z,66.04
2022-11-24T03:41:07.413Z,65.89
2022-11-24T03:43:41.968Z,65.57
2022-11-24T03:46:13.435Z,65.33
2022-11-24T03:48:42.265Z,64.54
2022-11-24T03:51:11.665Z,65.05
2022-11-24T03:53:40.597Z,65.35
2022-11-24T03:56:09.507Z,64.87
2022-11-24T03:58:38.318Z,64.72
2022-11-24T04:01:07.866Z,63.81
2022-11-24T04:03:36.795Z,64.03
2022-11-24T04:06:05.884Z,64.47
2022-11-24T04:08:34.766Z,64.09
2022-11-24T04:11:03.679Z,64.31
2022-11-24T04:13:32.562Z,64.29
2022-11-24T04:16:01.527Z,63.92
2022-11-24T04:18:30.271Z,64.17
2022-11-24T04:20:59.104Z,64.27
2022-11-24T04:23:28.576Z,64.54
2022-11-24T04:25:57.312Z,64.16
2022-11-24T04:28:25.968Z,63.84
2022-11-24T04:30:54.854Z,63.97
2022-11-24T04:33:23.617Z,63.91
2022-11-24T04:35:54.357Z,63.73
2022-11-24T04:39:23.540Z,64.00
2022-11-24T04:41:11.821Z,63.96
2022-11-24T04:43:40.890Z,64.29
2022-11-24T04:46:12.213Z,64.05
2022-11-24T04:48:41.085Z,63.92
2022-11-24T04:51:09.820Z,63.57
2022-11-24T04:53:38.518Z,63.52
2022-11-24T04:56:07.643Z,63.15
2022-11-24T04:58:36.721Z,63.34
2022-11-24T05:01:09.135Z,63.10
2022-11-24T05:03:38.163Z,62.36
2022-11-24T05:06:09.306Z,61.97
2022-11-24T05:08:38.084Z,61.50
2022-11-24T05:11:07.866Z,61.67
2022-11-24T05:13:36.709Z,61.03
2022-11-24T05:16:06.210Z,60.66
2022-11-24T05:18:35.325Z,60.77
2022-11-24T05:21:04.884Z,59.45
2022-11-24T05:23:33.614Z,59.28
2022-11-24T05:26:03.202Z,59.05
2022-11-24T05:28:32.028Z,59.27
2022-11-24T05:31:02.399Z,59.02
2022-11-24T05:33:33.794Z,58.83
2022-11-24T05:36:05.229Z,59.28
2022-11-24T05:38:34.653Z,59.06
2022-11-24T05:41:05.291Z,59.13
2022-11-24T05:43:34.026Z,58.77
2022-11-24T05:46:02.712Z,58.33
2022-11-24T05:48:31.464Z,58.51
2022-11-24T05:51:01.021Z,58.53
2022-11-24T05:53:31.065Z,58.35
2022-11-24T05:55:59.764Z,58.29
2022-11-24T05:58:28.562Z,58.40
2022-11-24T06:00:58.167Z,58.26
2022-11-24T06:03:26.948Z,58.70
2022-11-24T06:05:55.735Z,58.51
2022-11-24T06:08:28.197Z,58.58
2022-11-24T06:11:17.658Z,58.21
2022-11-24T06:13:48.912Z,58.48
2022-11-24T06:16:18.015Z,58.58
2022-11-24T06:18:46.778Z,58.05
2022-11-24T06:21:15.559Z,57.88
2022-11-24T06:23:44.484Z,57.31
2022-11-24T06:26:13.240Z,57.28
2022-11-24T06:28:42.319Z,56.93
2022-11-24T06:31:11.908Z,56.72
2022-11-24T06:33:40.835Z,56.86
2022-11-24T06:36:13.892Z,57.49
2022-11-24T06:38:42.774Z,57.47
2022-11-24T06:41:14.778Z,57.45
2022-11-24T06:43:43.794Z,57.71
2022-11-24T06:46:13.386Z,57.90
2022-11-24T06:48:42.403Z,57.88
2022-11-24T06:51:16.092Z,58.46
2022-11-24T06:53:44.780Z,58.67
2022-11-24T06:56:20.490Z,58.90
2022-11-24T06:58:52.716Z,58.72
2022-11-24T07:01:27.734Z,59.38
2022-11-24T07:03:57.510Z,59.55
2022-11-24T07:06:28.889Z,59.58
2022-11-24T07:08:57.841Z,59.72
2022-11-24T07:11:26.796Z,60.18
2022-11-24T07:13:59.923Z,60.42
2022-11-24T07:16:29.841Z,60.69
2022-11-24T07:18:59.696Z,61.21
2022-11-24T07:21:31.173Z,61.37
2022-11-24T07:24:00.141Z,61.38
2022-11-24T07:26:28.982Z,61.15
2022-11-24T07:28:57.929Z,61.56
2022-11-24T07:31:26.823Z,61.48
2022-11-24T07:33:56.738Z,61.90
2022-11-24T07:36:25.815Z,62.12
2022-11-24T07:38:54.608Z,62.16
2022-11-24T07:41:23.630Z,62.74
2022-11-24T07:43:52.528Z,62.48
2022-11-24T07:46:21.870Z,62.59
2022-11-24T07:48:50.748Z,62.90
2022-11-24T07:51:19.629Z,62.95
2022-11-24T07:53:48.420Z,62.95
2022-11-24T07:56:17.292Z,62.90
2022-11-24T07:58:51.377Z,63.34
2022-11-24T08:01:22.205Z,63.62
2022-11-24T08:03:51.248Z,63.40
2022-11-24T08:06:27.263Z,63.59
2022-11-24T08:08:59.804Z,63.31
2022-11-24T08:11:29.087Z,63.20
2022-11-24T08:13:58.122Z,63.36
2022-11-24T08:16:27.082Z,63.21
2022-11-24T08:18:57.080Z,63.24
2022-11-24T08:21:26.926Z,63.48
2022-11-24T08:23:57.275Z,64.08
2022-11-24T08:26:27.106Z,64.11
2022-11-24T08:28:58.539Z,63.67
2022-11-24T08:31:34.464Z,63.81
2022-11-24T08:34:04.595Z,63.79
2022-11-24T08:36:34.205Z,63.76
2022-11-24T08:39:07.160Z,63.69
2022-11-24T08:41:37.860Z,64.04
2022-11-24T08:44:06.591Z,63.90
2022-11-24T08:46:35.474Z,64.20
2022-11-24T08:49:05.844Z,64.14
2022-11-24T08:51:34.744Z,63.76
2022-11-24T08:54:04.100Z,63.83
2022-11-24T08:56:34.249Z,63.68
2022-11-24T08:59:03.646Z,63.54
2022-11-24T09:01:33.291Z,63.52
2022-11-24T09:04:02.199Z,63.29
2022-11-24T09:06:31.343Z,63.31
2022-11-24T09:09:00.452Z,63.25
2022-11-24T09:11:29.552Z,63.14
2022-11-24T09:13:58.445Z,63.24
2022-11-24T09:16:29.528Z,63.01
2022-11-24T09:19:01.277Z,63.33
2022-11-24T09:21:31.742Z,63.27
2022-11-24T09:24:00.775Z,63.36
2022-11-24T09:26:32.679Z,63.45
2022-11-24T09:29:03.047Z,63.72
2022-11-24T09:31:37.141Z,63.87
2022-11-24T09:34:08.327Z,63.95
2022-11-24T09:36:37.433Z,63.92
2022-11-24T09:39:06.259Z,64.11
2022-11-24T09:41:53.602Z,64.09
2022-11-24T09:44:49.548Z,64.21
2022-11-24T09:47:39.691Z,64.37
2022-11-24T09:50:14.801Z,64.65
2022-11-24T09:53:04.182Z,64.38
2022-11-24T09:55:36.148Z,64.25
2022-11-24T09:58:36.577Z,64.28
2022-11-24T10:01:13.766Z,64.31
2022-11-24T10:03:44.807Z,64.43
2022-11-24T10:06:19.207Z,64.44
2022-11-24T10:09:11.213Z,64.36
2022-11-24T10:11:44.627Z,64.72
2022-11-24T10:14:42.449Z,64.95
2022-11-24T10:17:46.060Z,65.02
2022-11-24T10:20:14.866Z,65.10
2022-11-24T10:23:02.737Z,65.13
2022-11-24T10:25:52.905Z,65.44
2022-11-24T10:28:21.628Z,65.56
2022-11-24T10:30:50.734Z,65.61
2022-11-24T10:33:28.752Z,65.46
2022-11-24T10:36:07.396Z,65.54
2022-11-24T10:38:44.790Z,65.86
2022-11-24T10:41:20.265Z,65.66
2022-11-24T10:43:48.982Z,65.97
2022-11-24T10:46:26.130Z,66.00
2022-11-24T10:49:00.975Z,65.85
2022-11-24T10:51:42.212Z,66.03
2022-11-24T10:54:29.801Z,66.09
2022-11-24T10:56:59.032Z,66.14
2022-11-24T10:59:34.200Z,65.92
2022-11-24T11:02:24.318Z,66.19
2022-11-24T11:04:53.429Z,65.85
2022-11-24T11:07:25.633Z,65.62
2022-11-24T11:10:19.038Z,65.67
2022-11-24T11:12:47.941Z,65.82
2022-11-24T11:15:25.846Z,65.77
2022-11-24T11:17:59.757Z,65.66
2022-11-24T11:20:32.055Z,65.59
2022-11-24T11:23:21.520Z,65.57
2022-11-24T11:25:50.410Z,65.49
2022-11-24T11:28:19.135Z,65.35
2022-11-24T11:31:17.355Z,65.16
2022-11-24T11:34:06.361Z,65.03
2022-11-24T11:36:45.745Z,65.08
2022-11-24T11:39:32.098Z,65.26
2022-11-24T11:42:37.990Z,65.32
2022-11-24T11:45:19.122Z,65.25
2022-11-24T11:48:03.987Z,65.22
2022-11-24T11:53:56.832Z,65.36
2022-11-24T11:56:26.829Z,65.25
2022-11-24T11:59:04.912Z,65.49
2022-11-24T12:02:11.590Z,65.51
2022-11-24T12:04:53.646Z,65.42
2022-11-24T12:07:28.138Z,65.42
2022-11-24T12:09:59.928Z,65.56
2022-11-24T12:12:46.618Z,65.49
2022-11-24T12:15:21.373Z,65.89
2022-11-24T12:18:04.097Z,65.46
2022-11-24T12:20:56.599Z,65.74
2022-11-24T12:23:37.356Z,65.57
2022-11-24T12:26:31.642Z,65.74
2022-11-24T12:29:19.963Z,65.69
2022-11-24T12:32:09.766Z,65.71
2022-11-24T12:34:55.628Z,65.41
2022-11-24T12:37:43.487Z,65.52
2022-11-24T12:40:25.906Z,65.47
2022-11-24T12:43:25.603Z,65.96
2022-11-24T12:46:27.401Z,65.76
2022-11-24T12:49:29.914Z,66.02
2022-11-24T12:52:42.965Z,66.14
2022-11-24T12:55:34.142Z,66.18
2022-11-24T12:58:12.461Z,66.17
2022-11-24T13:01:00.338Z,66.30
2022-11-24T13:04:17.050Z,66.42
2022-11-24T13:06:55.279Z,66.63
2022-11-24T13:09:24.159Z,66.77
2022-11-24T13:12:15.757Z,66.59
2022-11-24T13:14:51.022Z,67.08
2022-11-24T13:17:50.291Z,67.19
2022-11-24T13:20:31.292Z,67.01
2022-11-24T13:23:03.462Z,67.03
2022-11-24T13:25:37.476Z,66.99
2022-11-24T13:28:07.426Z,66.99
2022-11-24T13:30:36.172Z,67.26
2022-11-24T13:33:16.877Z,67.32
2022-11-24T13:36:04.818Z,67.24
2022-11-24T13:38:54.175Z,67.26
2022-11-24T13:41:35.337Z,67.37
2022-11-24T13:44:16.345Z,67.45
2022-11-24T13:47:06.154Z,67.46
2022-11-24T13:49:40.126Z,67.57
2022-11-24T13:52:40.173Z,67.23
2022-11-24T13:55:12.463Z,67.54
2022-11-24T13:58:12.904Z,67.59
2022-11-24T14:01:28.978Z,67.46
2022-11-24T14:04:29.197Z,67.47
2022-11-24T14:06:52.938Z,67.48
2022-11-24T14:09:29.232Z,67.73
2022-11-24T14:12:16.046Z,67.76
2022-11-24T14:14:46.711Z,67.46
2022-11-24T14:17:20.587Z,67.69
2022-11-24T14:19:52.172Z,67.87
2022-11-24T14:22:27.141Z,67.74
2022-11-24T14:25:01.502Z,67.44
2022-11-24T14:27:31.567Z,68.00
2022-11-24T14:30:03.259Z,67.70
2022-11-24T14:32:34.356Z,67.83
2022-11-24T14:35:23.550Z,67.73
2022-11-24T14:37:52.462Z,67.92
2022-11-24T14:40:53.734Z,68.01
2022-11-24T14:43:33.744Z,67.90
2022-11-24T14:46:07.874Z,67.99
2022-11-24T14:48:41.262Z,68.15
2022-11-24T14:51:18.675Z,68.56
2022-11-24T14:53:51.935Z,68.34
2022-11-24T14:56:30.886Z,68.32
2022-11-24T14:59:00.046Z,68.04
2022-11-24T15:01:37.132Z,68.28
2022-11-24T15:07:22.655Z,68.71
2022-11-24T15:09:54.924Z,68.58
2022-11-24T15:12:35.381Z,68.67
2022-11-24T15:15:16.045Z,68.76
2022-11-24T15:17:51.706Z,68.77
2022-11-24T15:20:27.720Z,68.94
2022-11-24T15:23:20.585Z,68.78
2022-11-24T15:25:53.306Z,69.07
2022-11-24T15:28:29.265Z,69.08
2022-11-24T15:31:03.861Z,68.99
2022-11-24T15:33:32.818Z,69.21
2022-11-24T15:36:02.217Z,68.99
2022-11-24T15:38:31.084Z,68.62
2022-11-24T15:41:01.982Z,69.28
2022-11-24T15:43:35.372Z,69.02
2022-11-24T15:46:06.029Z,69.19
2022-11-24T15:48:35.213Z,69.33
2022-11-24T15:51:07.239Z,69.34
2022-11-24T15:53:35.997Z,69.37
2022-11-24T15:56:09.745Z,69.37
2022-11-24T15:58:38.865Z,69.26
2022-11-24T16:01:08.248Z,69.27
2022-11-24T16:03:52.466Z,69.33
2022-11-24T16:06:25.111Z,69.36
2022-11-24T16:08:55.394Z,69.24
2022-11-24T16:11:25.752Z,69.48
2022-11-24T16:13:54.746Z,69.52
2022-11-24T16:16:25.830Z,69.59
2022-11-24T16:18:54.829Z,69.61
2022-11-24T16:21:23.844Z,69.75
2022-11-24T16:23:52.578Z,69.54
2022-11-24T16:26:21.300Z,69.63
2022-11-24T16:28:50.134Z,69.53
2022-11-24T16:31:20.298Z,69.81
2022-11-24T16:33:49.259Z,69.65
2022-11-24T16:36:18.196Z,69.79
2022-11-24T16:38:46.964Z,69.93
2022-11-24T16:41:16.663Z,69.80
2022-11-24T16:43:45.534Z,69.63
2022-11-24T16:46:25.316Z,69.51
2022-11-24T16:48:58.201Z,69.84
2022-11-24T16:51:32.968Z,69.95
2022-11-24T16:54:04.577Z,69.49
2022-11-24T16:56:33.687Z,69.66
2022-11-24T16:59:02.517Z,69.99
2022-11-24T17:01:33.510Z,69.74
2022-11-24T17:04:04.343Z,69.84
2022-11-24T17:06:36.151Z,69.82
2022-11-24T17:09:05.008Z,70.04
2022-11-24T17:11:33.824Z,70.00
2022-11-24T17:14:03.567Z,69.93
2022-11-24T17:16:32.644Z,69.81
2022-11-24T17:19:01.523Z,69.88
2022-11-24T17:21:30.676Z,70.16
2022-11-24T17:24:07.884Z,70.45
2022-11-24T17:26:36.671Z,70.36
2022-11-24T17:29:05.541Z,70.25
2022-11-24T17:31:40.379Z,70.27
2022-11-24T17:34:12.080Z,70.18
2022-11-24T17:36:42.066Z,70.31
2022-11-24T17:39:11.660Z,70.28
2022-11-24T17:41:40.390Z,70.17
2022-11-24T17:44:11.179Z,70.01
2022-11-24T17:46:40.320Z,70.36
2022-11-24T17:49:13.535Z,70.24
2022-11-24T17:51:42.459Z,70.26
2022-11-24T17:54:39.298Z,70.41
2022-11-24T17:57:00.029Z,70.39
2022-11-24T17:59:28.786Z,70.54
2022-11-24T18:01:58.220Z,70.50
2022-11-24T18:04:27.182Z,70.41
2022-11-24T18:06:55.931Z,70.43
2022-11-24T18:09:24.674Z,70.75
2022-11-24T18:11:53.519Z,70.58
2022-11-24T18:14:22.264Z,70.58
2022-11-24T18:16:51.062Z,70.84
2022-11-24T18:19:19.941Z,70.57
2022-11-24T18:21:48.674Z,70.81
2022-11-24T18:24:22.673Z,70.63
2022-11-24T18:26:52.868Z,70.72
2022-11-24T18:29:22.096Z,70.65
2022-11-24T18:31:51.056Z,70.63
2022-11-24T18:34:19.883Z,70.72
2022-11-24T18:36:52.633Z,70.65
2022-11-24T18:39:21.609Z,70.57
2022-11-24T18:41:50.613Z,70.70
2022-11-24T18:44:19.421Z,70.74
2022-11-24T18:46:49.843Z,70.92
2022-11-24T18:49:18.584Z,70.93
2022-11-24T18:51:47.271Z,70.86
2022-11-24T18:54:16.286Z,70.90
2022-11-24T18:56:45.392Z,70.74
2022-11-24T18:59:14.276Z,70.69
2022-11-24T19:01:43.765Z,70.83
2022-11-24T19:04:13.559Z,70.79
2022-11-24T19:06:42.360Z,70.88
2022-11-24T19:09:16.498Z,70.94
2022-11-24T19:11:46.624Z,71.13
2022-11-24T19:14:18.316Z,71.18
2022-11-24T19:16:48.673Z,70.94
2022-11-24T19:19:17.742Z,71.10
2022-11-24T19:21:46.683Z,70.96
2022-11-24T19:24:15.471Z,70.89
2022-11-24T19:26:44.199Z,71.13
2022-11-24T19:29:12.918Z,71.03
2022-11-24T19:31:41.744Z,71.20
2022-11-24T19:34:10.639Z,71.18
2022-11-24T19:36:41.112Z,71.42
2022-11-24T19:39:17.009Z,71.10
2022-11-24T19:41:45.852Z,71.06
2022-11-24T19:44:14.942Z,71.11
2022-11-24T19:46:43.679Z,71.11
2022-11-24T19:49:12.468Z,71.19
2022-11-24T19:51:41.308Z,71.07
2022-11-24T19:54:13.474Z,71.09
2022-11-24T19:56:42.502Z,70.90
2022-11-24T19:59:15.463Z,70.97
2022-11-24T20:01:45.155Z,71.07
2022-11-24T20:04:16.044Z,71.11
2022-11-24T20:06:48.616Z,71.16
2022-11-24T20:09:18.837Z,71.02
2022-11-24T20:11:49.349Z,71.09
2022-11-24T20:14:19.817Z,70.94
2022-11-24T20:16:49.055Z,70.95
2022-11-24T20:19:18.848Z,70.96
2022-11-24T20:21:49.912Z,70.98
2022-11-24T20:24:25.136Z,71.10
2022-11-24T20:26:59.510Z,71.04
2022-11-24T20:29:32.807Z,70.94
2022-11-24T20:32:01.693Z,71.14
2022-11-24T20:34:30.541Z,70.95
2022-11-24T20:36:59.274Z,71.10
2022-11-24T20:39:29.127Z,71.27
2022-11-24T20:41:57.892Z,71.32
2022-11-24T20:44:28.293Z,71.25
2022-11-24T20:47:00.257Z,71.31
2022-11-24T20:49:29.312Z,71.38
2022-11-24T20:51:58.279Z,71.22
2022-11-24T20:54:27.309Z,71.20
2022-11-24T20:56:56.426Z,71.25
2022-11-24T20:59:26.348Z,71.39
2022-11-24T21:01:59.839Z,71.33
2022-11-24T21:04:28.970Z,71.20
2022-11-24T21:06:57.975Z,71.31
2022-11-24T21:09:28.048Z,71.44
2022-11-24T21:11:56.898Z,71.34
2022-11-24T21:14:25.693Z,71.19
2022-11-24T21:16:54.617Z,71.36
2022-11-24T21:19:23.672Z,71.46
2022-11-24T21:21:52.470Z,71.40
2022-11-24T21:24:22.236Z,71.53
2022-11-24T21:26:53.174Z,71.57
2022-11-24T21:29:23.952Z,71.64
2022-11-24T21:31:53.065Z,71.49
2022-11-24T21:34:22.013Z,71.38
2022-11-24T21:36:50.817Z,71.48
2022-11-24T21:39:19.744Z,71.57
2022-11-24T21:41:48.801Z,71.73
2022-11-24T21:44:17.984Z,71.59
2022-11-24T21:46:52.725Z,71.52
2022-11-24T21:49:24.398Z,71.42
2022-11-24T21:51:56.245Z,71.61
2022-11-24T21:54:25.238Z,71.78
2022-11-24T21:56:55.059Z,71.69
2022-11-24T21:59:23.944Z,71.39
2022-11-24T22:01:53.328Z,71.67
2022-11-24T22:04:22.157Z,71.73
2022-11-24T22:06:52.938Z,71.71
2022-11-24T22:09:21.934Z,71.70
2022-11-24T22:11:52.679Z,71.84
2022-11-24T22:14:21.476Z,71.58
2022-11-24T22:16:50.348Z,71.86
2022-11-24T22:19:19.544Z,71.88
2022-11-24T22:21:48.397Z,72.11
2022-11-24T22:24:17.199Z,71.91
2022-11-24T22:26:46.024Z,71.81
2022-11-24T22:29:14.844Z,71.93
2022-11-24T22:31:44.007Z,71.94
2022-11-24T22:34:12.846Z,71.92
2022-11-24T22:36:41.688Z,72.04
2022-11-24T22:39:12.767Z,71.98
2022-11-24T22:41:41.586Z,71.99
2022-11-24T22:44:10.406Z,72.07
2022-11-24T22:46:39.183Z,72.09
2022-11-24T22:49:08.104Z,72.01
2022-11-24T22:51:39.939Z,72.13
2022-11-24T22:54:12.398Z,72.08
2022-11-24T22:56:41.202Z,71.95
2022-11-24T22:59:09.893Z,72.20
2022-11-24T23:01:39.405Z,72.23
2022-11-24T23:04:08.505Z,72.24
2022-11-24T23:06:37.335Z,71.92
2022-11-24T23:09:06.821Z,72.35
2022-11-24T23:11:39.443Z,72.23
2022-11-24T23:14:13.882Z,72.36
2022-11-24T23:16:43.738Z,72.11
2022-11-24T23:19:12.769Z,72.13
2022-11-24T23:21:41.519Z,72.42
2022-11-24T23:24:11.764Z,72.24
2022-11-24T23:26:41.826Z,72.26
2022-11-24T23:29:11.768Z,72.23
2022-11-24T23:31:40.665Z,72.36
2022-11-24T23:34:09.834Z,72.12
2022-11-24T23:36:38.848Z,72.91
2022-11-24T23:39:09.891Z,72.28
2022-11-24T23:41:38.967Z,72.36
2022-11-24T23:44:08.212Z,72.54
2022-11-24T23:46:37.117Z,72.47
2022-11-24T23:49:05.978Z,72.50
2022-11-24T23:51:35.114Z,72.32
2022-11-24T23:54:09.159Z,72.47
2022-11-24T23:56:38.131Z,72.36
2022-11-24T23:59:06.962Z,72.44
